createdAt,value
2023-10-30T00:01:59.117Z,6.50
2023-10-30T00:04:04.503Z,6.50
2023-10-30T00:06:09.494Z,6.10
2023-10-30T00:08:14.177Z,5.80
2023-10-30T00:10:19.080Z,5.90
2023-10-30T00:12:24.201Z,6.70
2023-10-30T00:14:29.169Z,6.30
2023-10-30T00:16:33.985Z,6.00
2023-10-30T00:18:38.811Z,6.50
2023-10-30T00:20:44.278Z,6.20
2023-10-30T00:22:49.148Z,6.00
2023-10-30T00:24:53.975Z,6.00
2023-10-30T00:26:58.677Z,5.70
2023-10-30T00:29:03.411Z,5.30
2023-10-30T00:31:08.167Z,5.90
2023-10-30T00:33:12.873Z,6.00
2023-10-30T00:35:17.752Z,5.50
2023-10-30T00:37:22.536Z,5.70
2023-10-30T00:39:27.258Z,6.00
2023-10-30T00:41:32.087Z,5.10
2023-10-30T00:43:36.784Z,5.70
2023-10-30T00:45:41.633Z,5.60
2023-10-30T00:47:46.470Z,6.50
2023-10-30T00:49:51.243Z,6.00
2023-10-30T00:51:56.011Z,6.10
2023-10-30T00:54:00.726Z,5.90
2023-10-30T00:56:06.138Z,5.90
2023-10-30T00:58:11.812Z,5.80
2023-10-30T01:00:17.706Z,5.70
2023-10-30T01:02:22.570Z,5.70
2023-10-30T01:04:27.676Z,6.00
2023-10-30T01:06:32.818Z,5.50
2023-10-30T01:08:38.208Z,5.70
2023-10-30T01:10:45.832Z,5.60
2023-10-30T01:12:50.500Z,5.50
2023-10-30T01:14:55.173Z,5.60
2023-10-30T01:16:59.901Z,5.50
2023-10-30T01:19:05.135Z,5.50
2023-10-30T01:21:12.696Z,5.60
2023-10-30T01:23:17.582Z,5.50
2023-10-30T01:25:22.353Z,5.80
2023-10-30T01:27:27.378Z,5.90
2023-10-30T01:29:32.116Z,5.70
2023-10-30T01:31:36.894Z,5.60
2023-10-30T01:33:42.082Z,5.50
2023-10-30T01:35:46.816Z,5.80
2023-10-30T01:37:51.511Z,5.80
2023-10-30T01:39:56.234Z,5.80
2023-10-30T01:42:00.898Z,5.70
2023-10-30T01:44:07.022Z,5.30
2023-10-30T01:46:11.767Z,5.50
2023-10-30T01:48:16.682Z,5.50
2023-10-30T01:50:24.524Z,5.60
2023-10-30T01:52:31.551Z,5.50
2023-10-30T01:54:36.393Z,5.30
2023-10-30T01:56:44.347Z,5.60
2023-10-30T01:58:49.096Z,5.40
2023-10-30T02:00:54.702Z,5.50
2023-10-30T02:03:00.206Z,5.60
2023-10-30T02:05:07.571Z,5.50
2023-10-30T02:07:12.371Z,5.30
2023-10-30T02:09:17.477Z,5.20
2023-10-30T02:11:23.454Z,5.50
2023-10-30T02:13:28.385Z,5.50
2023-10-30T02:15:33.268Z,5.70
2023-10-30T02:17:37.988Z,5.50
2023-10-30T02:19:42.844Z,5.80
2023-10-30T02:21:47.549Z,5.60
2023-10-30T02:23:52.264Z,5.90
2023-10-30T02:25:57.059Z,5.40
2023-10-30T02:28:02.233Z,5.60
2023-10-30T02:30:09.384Z,5.90
2023-10-30T02:32:14.058Z,5.40
2023-10-30T02:34:19.083Z,5.80
2023-10-30T02:36:23.847Z,5.70
2023-10-30T02:38:30.683Z,6.00
2023-10-30T02:40:35.739Z,5.80
2023-10-30T02:42:41.252Z,6.00
2023-10-30T02:44:46.089Z,6.00
2023-10-30T02:46:50.850Z,6.10
2023-10-30T02:48:55.702Z,6.40
2023-10-30T02:51:01.508Z,6.50
2023-10-30T02:53:06.890Z,6.60
2023-10-30T02:55:12.017Z,6.60
2023-10-30T02:57:16.869Z,6.10
2023-10-30T02:59:21.602Z,6.50
2023-10-30T03:01:26.323Z,6.90
2023-10-30T03:03:34.104Z,6.80
2023-10-30T03:05:39.245Z,6.80
2023-10-30T03:07:43.904Z,6.70
2023-10-30T03:09:50.592Z,6.90
2023-10-30T03:11:55.524Z,7.50
2023-10-30T03:14:00.193Z,7.10
2023-10-30T03:16:05.617Z,6.70
2023-10-30T03:18:10.466Z,6.10
2023-10-30T03:20:15.390Z,5.90
2023-10-30T03:22:20.660Z,5.40
2023-10-30T03:24:25.432Z,5.20
2023-10-30T03:26:30.113Z,5.20
2023-10-30T03:28:34.890Z,4.70
2023-10-30T03:30:39.632Z,5.10
2023-10-30T03:32:44.422Z,5.20
2023-10-30T03:34:49.370Z,5.20
2023-10-30T03:36:55.164Z,5.40
2023-10-30T03:39:00.034Z,5.40
2023-10-30T03:41:04.829Z,5.20
2023-10-30T03:43:09.495Z,5.20
2023-10-30T03:45:14.751Z,5.10
2023-10-30T03:47:22.707Z,5.20
2023-10-30T03:49:27.514Z,5.10
2023-10-30T03:51:32.397Z,4.90
2023-10-30T03:53:37.289Z,5.20
2023-10-30T03:55:42.075Z,5.30
2023-10-30T03:57:46.820Z,5.10
2023-10-30T03:59:51.641Z,5.10
2023-10-30T04:01:56.224Z,4.70
2023-10-30T04:04:01.112Z,4.40
2023-10-30T04:06:06.422Z,4.80
2023-10-30T04:08:11.301Z,4.80
2023-10-30T04:10:16.068Z,4.70
2023-10-30T04:12:23.229Z,4.80
2023-10-30T04:14:29.180Z,4.80
2023-10-30T04:16:33.991Z,4.90
2023-10-30T04:18:39.016Z,4.80
2023-10-30T04:20:43.735Z,5.10
2023-10-30T04:22:48.444Z,4.90
2023-10-30T04:24:53.157Z,5.00
2023-10-30T04:26:57.826Z,4.80
2023-10-30T04:29:02.663Z,5.00
2023-10-30T04:31:08.313Z,5.00
2023-10-30T04:33:13.037Z,5.40
2023-10-30T04:35:17.808Z,9.60
2023-10-30T04:37:22.551Z,6.70
2023-10-30T04:39:27.264Z,5.80
2023-10-30T04:41:34.324Z,5.00
2023-10-30T04:43:39.083Z,5.50
2023-10-30T04:45:43.990Z,5.30
2023-10-30T04:47:48.940Z,4.90
2023-10-30T04:49:53.716Z,5.50
2023-10-30T04:51:58.369Z,5.20
2023-10-30T04:54:03.096Z,5.50
2023-10-30T04:56:09.023Z,5.30
2023-10-30T04:58:13.696Z,5.60
2023-10-30T05:00:19.391Z,5.00
2023-10-30T05:02:24.116Z,5.50
2023-10-30T05:04:28.895Z,5.60
2023-10-30T05:06:33.948Z,5.10
2023-10-30T05:08:39.016Z,5.40
2023-10-30T05:10:43.714Z,5.10
2023-10-30T05:12:48.593Z,5.20
2023-10-30T05:14:53.390Z,5.90
2023-10-30T05:17:00.905Z,5.20
2023-10-30T05:19:06.658Z,5.10
2023-10-30T05:21:12.724Z,4.90
2023-10-30T05:23:18.691Z,5.30
2023-10-30T05:25:32.012Z,5.70
2023-10-30T05:27:44.741Z,5.20
2023-10-30T05:29:49.598Z,4.90
2023-10-30T05:31:54.452Z,4.90
2023-10-30T05:33:59.198Z,4.90
2023-10-30T05:36:05.402Z,5.20
2023-10-30T05:38:10.054Z,5.20
2023-10-30T05:40:15.473Z,5.20
2023-10-30T05:42:20.300Z,4.90
2023-10-30T05:44:25.062Z,5.40
2023-10-30T05:46:29.835Z,5.20
2023-10-30T05:48:34.914Z,5.30
2023-10-30T05:50:40.039Z,5.10
2023-10-30T05:52:45.822Z,5.30
2023-10-30T05:54:50.708Z,5.00
2023-10-30T05:56:55.565Z,5.10
2023-10-30T05:59:00.310Z,5.30
2023-10-30T06:01:08.029Z,5.30
2023-10-30T06:03:15.411Z,5.10
2023-10-30T06:05:20.208Z,6.00
2023-10-30T06:07:24.939Z,6.20
2023-10-30T06:09:29.769Z,5.90
2023-10-30T06:11:34.534Z,6.20
2023-10-30T06:13:39.237Z,6.00
2023-10-30T06:15:44.124Z,6.40
2023-10-30T06:17:48.903Z,6.40
2023-10-30T06:19:53.650Z,6.40
2023-10-30T06:21:58.304Z,6.70
2023-10-30T06:24:03.728Z,6.80
2023-10-30T06:26:12.533Z,7.20
2023-10-30T06:28:17.262Z,7.00
2023-10-30T06:30:22.041Z,7.30
2023-10-30T06:32:26.980Z,7.40
2023-10-30T06:34:36.680Z,7.10
2023-10-30T06:36:43.753Z,6.90
2023-10-30T06:38:48.984Z,7.70
2023-10-30T06:40:53.752Z,7.40
2023-10-30T06:42:58.414Z,7.60
2023-10-30T06:45:03.242Z,7.60
2023-10-30T06:47:08.477Z,7.50
2023-10-30T06:49:13.134Z,7.30
2023-10-30T06:51:17.863Z,7.40
2023-10-30T06:53:22.963Z,8.20
2023-10-30T06:55:27.590Z,7.90
2023-10-30T06:57:32.356Z,7.50
2023-10-30T06:59:37.129Z,8.30
2023-10-30T07:01:45.643Z,8.40
2023-10-30T07:03:50.499Z,8.30
2023-10-30T07:05:55.501Z,8.20
2023-10-30T07:08:00.241Z,8.50
2023-10-30T07:10:05.908Z,8.30
2023-10-30T07:12:11.817Z,8.40
2023-10-30T07:14:16.658Z,7.60
2023-10-30T07:16:22.665Z,8.70
2023-10-30T07:18:27.477Z,8.40
2023-10-30T07:20:32.533Z,8.60
2023-10-30T07:22:37.328Z,7.30
2023-10-30T07:24:42.110Z,7.00
2023-10-30T07:26:46.796Z,6.80
2023-10-30T07:28:51.738Z,7.40
2023-10-30T07:30:56.417Z,6.60
2023-10-30T07:33:01.243Z,7.20
2023-10-30T07:35:07.324Z,7.20
2023-10-30T07:37:15.356Z,7.20
2023-10-30T07:39:20.789Z,7.20
2023-10-30T07:41:28.385Z,7.20
2023-10-30T07:43:33.079Z,7.30
2023-10-30T07:45:43.237Z,7.10
2023-10-30T07:47:48.143Z,7.00
2023-10-30T07:49:53.006Z,6.90
2023-10-30T07:51:57.731Z,6.90
2023-10-30T07:54:02.453Z,6.80
2023-10-30T07:56:07.706Z,7.00
2023-10-30T07:58:12.492Z,7.20
2023-10-30T08:00:18.393Z,6.80
2023-10-30T08:02:23.355Z,6.90
2023-10-30T08:04:29.041Z,7.00
2023-10-30T08:06:33.784Z,6.70
2023-10-30T08:08:39.046Z,6.90
2023-10-30T08:10:43.850Z,6.30
2023-10-30T08:12:51.668Z,6.50
2023-10-30T08:14:56.379Z,6.50
2023-10-30T08:17:01.162Z,6.50
2023-10-30T08:19:08.913Z,6.90
2023-10-30T08:21:13.668Z,6.70
2023-10-30T08:23:18.505Z,6.50
2023-10-30T08:25:23.275Z,7.00
2023-10-30T08:27:27.977Z,7.10
2023-10-30T08:29:32.747Z,7.00
2023-10-30T08:31:37.571Z,6.90
2023-10-30T08:33:42.313Z,6.90
2023-10-30T08:35:47.174Z,7.10
2023-10-30T08:37:52.180Z,7.40
2023-10-30T08:39:56.925Z,7.20
2023-10-30T08:42:01.946Z,7.00
2023-10-30T08:44:09.933Z,7.30
2023-10-30T08:46:19.588Z,7.30
2023-10-30T08:48:24.427Z,7.50
2023-10-30T08:50:29.184Z,7.50
2023-10-30T08:52:33.964Z,7.30
2023-10-30T08:54:38.701Z,7.40
2023-10-30T08:56:43.411Z,7.20
2023-10-30T08:58:48.205Z,7.50
2023-10-30T09:00:52.928Z,7.60
2023-10-30T09:02:57.689Z,7.10
2023-10-30T09:05:02.867Z,7.80
2023-10-30T09:07:07.854Z,8.10
2023-10-30T09:09:12.622Z,7.80
2023-10-30T09:11:17.499Z,7.40
2023-10-30T09:13:22.123Z,7.90
2023-10-30T09:15:26.853Z,8.10
2023-10-30T09:17:31.688Z,8.00
2023-10-30T09:19:36.423Z,8.50
2023-10-30T09:21:41.347Z,8.70
2023-10-30T09:23:46.723Z,9.10
2023-10-30T09:25:51.463Z,9.30
2023-10-30T09:27:56.746Z,9.20
2023-10-30T09:30:04.735Z,9.40
2023-10-30T09:32:09.545Z,9.00
2023-10-30T09:34:14.364Z,9.40
2023-10-30T09:36:19.266Z,9.60
2023-10-30T09:38:24.036Z,9.40
2023-10-30T09:40:29.070Z,9.80
2023-10-30T09:42:37.526Z,9.60
2023-10-30T09:44:43.173Z,9.20
2023-10-30T09:46:48.370Z,9.20
2023-10-30T09:48:54.287Z,8.60
2023-10-30T09:50:59.909Z,7.70
2023-10-30T09:53:04.838Z,7.50
2023-10-30T09:55:11.115Z,7.40
2023-10-30T09:57:18.720Z,7.30
2023-10-30T09:59:24.938Z,7.40
2023-10-30T10:01:29.921Z,7.10
2023-10-30T10:03:37.943Z,7.60
2023-10-30T10:05:42.933Z,7.50
2023-10-30T10:07:48.165Z,7.60
2023-10-30T10:10:03.324Z,7.70
2023-10-30T10:12:21.702Z,8.10
2023-10-30T10:14:30.473Z,7.70
2023-10-30T10:16:37.369Z,7.40
2023-10-30T10:18:42.213Z,7.10
2023-10-30T10:21:01.491Z,7.90
2023-10-30T10:23:06.198Z,8.10
2023-10-30T10:25:11.323Z,7.60
2023-10-30T10:27:16.808Z,8.40
2023-10-30T10:29:25.674Z,7.80
2023-10-30T10:31:31.143Z,9.20
2023-10-30T10:33:39.058Z,7.90
2023-10-30T10:35:47.701Z,8.20
2023-10-30T10:38:07.224Z,7.80
2023-10-30T10:40:19.197Z,7.80
2023-10-30T10:42:24.732Z,8.00
2023-10-30T10:44:30.377Z,8.50
2023-10-30T10:46:37.235Z,8.90
2023-10-30T10:48:43.603Z,9.00
2023-10-30T10:50:49.039Z,8.40
2023-10-30T10:52:54.275Z,8.60
2023-10-30T10:55:03.771Z,8.50
2023-10-30T10:57:14.486Z,9.10
2023-10-30T10:59:22.897Z,9.40
2023-10-30T11:01:32.107Z,9.80
2023-10-30T11:03:39.538Z,9.00
2023-10-30T11:05:46.997Z,8.40
2023-10-30T11:07:58.291Z,8.80
2023-10-30T11:10:10.049Z,8.60
2023-10-30T11:12:31.130Z,8.60
2023-10-30T11:14:51.144Z,8.10
2023-10-30T11:17:02.322Z,8.20
2023-10-30T11:19:08.449Z,8.30
2023-10-30T11:21:14.743Z,8.20
2023-10-30T11:23:49.165Z,8.40
2023-10-30T11:25:54.010Z,8.20
2023-10-30T11:27:59.530Z,7.70
2023-10-30T11:30:07.432Z,8.80
2023-10-30T11:32:15.026Z,7.90
2023-10-30T11:34:23.288Z,8.50
2023-10-30T11:36:32.983Z,8.20
2023-10-30T11:39:07.832Z,8.90
2023-10-30T11:41:17.434Z,8.50
2023-10-30T11:43:29.606Z,8.70
2023-10-30T11:45:34.573Z,9.10
2023-10-30T11:47:40.062Z,8.30
2023-10-30T11:49:44.880Z,8.50
2023-10-30T11:51:51.990Z,8.30
2023-10-30T11:53:57.398Z,8.40
2023-10-30T11:56:03.799Z,7.60
2023-10-30T11:58:10.550Z,8.30
2023-10-30T12:00:16.388Z,8.60
2023-10-30T12:02:24.211Z,8.40
2023-10-30T12:04:29.679Z,7.70
2023-10-30T12:06:34.687Z,7.90
2023-10-30T12:08:39.491Z,7.90
2023-10-30T12:10:44.459Z,7.40
2023-10-30T12:12:49.358Z,7.30
2023-10-30T12:14:57.085Z,7.90
2023-10-30T12:17:01.870Z,7.60
2023-10-30T12:19:09.694Z,7.90
2023-10-30T12:21:15.146Z,7.20
2023-10-30T12:23:19.965Z,7.40
2023-10-30T12:25:24.874Z,7.20
2023-10-30T12:27:29.574Z,6.90
2023-10-30T12:29:34.316Z,7.30
2023-10-30T12:31:39.135Z,7.00
2023-10-30T12:33:44.293Z,7.30
2023-10-30T12:36:02.077Z,6.80
2023-10-30T12:38:15.900Z,6.60
2023-10-30T12:40:20.848Z,7.00
2023-10-30T12:42:27.109Z,6.70
2023-10-30T12:44:31.864Z,7.00
2023-10-30T12:46:36.741Z,7.00
2023-10-30T12:48:41.525Z,6.90
2023-10-30T12:50:46.281Z,7.00
2023-10-30T12:52:50.980Z,7.00
2023-10-30T12:54:55.850Z,6.80
2023-10-30T12:57:00.767Z,6.40
2023-10-30T12:59:05.594Z,6.90
2023-10-30T13:01:13.562Z,6.80
2023-10-30T13:03:18.421Z,6.40
2023-10-30T13:05:23.266Z,6.90
2023-10-30T13:07:28.126Z,6.90
2023-10-30T13:09:32.954Z,6.50
2023-10-30T13:11:40.248Z,6.50
2023-10-30T13:13:45.525Z,6.50
2023-10-30T13:15:50.430Z,6.80
2023-10-30T13:17:55.523Z,6.50
2023-10-30T13:20:00.248Z,6.70
2023-10-30T13:22:05.225Z,7.40
2023-10-30T13:24:10.452Z,7.00
2023-10-30T13:26:15.143Z,6.80
2023-10-30T13:28:20.084Z,7.00
2023-10-30T13:30:25.203Z,6.90
2023-10-30T13:32:29.919Z,6.40
2023-10-30T13:34:34.662Z,6.10
2023-10-30T13:36:39.546Z,7.00
2023-10-30T13:38:44.460Z,7.10
2023-10-30T13:40:49.130Z,6.60
2023-10-30T13:42:53.950Z,6.80
2023-10-30T13:44:58.745Z,7.10
2023-10-30T13:47:03.562Z,6.80
2023-10-30T13:49:08.403Z,7.10
2023-10-30T13:51:13.167Z,7.20
2023-10-30T13:53:17.803Z,6.90
2023-10-30T13:55:22.535Z,7.00
2023-10-30T13:57:27.475Z,7.10
2023-10-30T13:59:32.472Z,7.10
2023-10-30T14:01:37.521Z,7.60
2023-10-30T14:03:42.972Z,7.50
2023-10-30T14:05:47.885Z,7.70
2023-10-30T14:07:52.753Z,7.30
2023-10-30T14:09:57.561Z,7.20
2023-10-30T14:12:06.110Z,7.10
2023-10-30T14:14:10.846Z,7.20
2023-10-30T14:16:16.330Z,7.30
2023-10-30T14:18:21.181Z,6.70
2023-10-30T14:20:26.059Z,7.80
2023-10-30T14:22:30.699Z,7.90
2023-10-30T14:24:35.529Z,7.70
2023-10-30T14:26:40.384Z,7.00
2023-10-30T14:28:45.205Z,7.60
2023-10-30T14:30:50.011Z,7.20
2023-10-30T14:32:54.946Z,7.20
2023-10-30T14:34:59.674Z,7.70
2023-10-30T14:37:04.716Z,7.90
2023-10-30T14:39:09.382Z,7.20
2023-10-30T14:41:14.110Z,7.60
2023-10-30T14:43:18.764Z,8.90
2023-10-30T14:45:23.531Z,7.90
2023-10-30T14:47:28.308Z,7.50
2023-10-30T14:49:33.319Z,6.90
2023-10-30T14:51:38.130Z,7.60
2023-10-30T14:53:42.894Z,8.70
2023-10-30T14:55:47.646Z,8.00
2023-10-30T14:57:52.462Z,7.10
2023-10-30T14:59:57.334Z,7.70
2023-10-30T15:02:02.171Z,7.80
2023-10-30T15:04:07.570Z,7.70
2023-10-30T15:06:12.398Z,8.60
2023-10-30T15:08:17.314Z,8.50
2023-10-30T15:10:22.295Z,9.00
2023-10-30T15:12:27.265Z,8.80
2023-10-30T15:14:32.043Z,8.40
2023-10-30T15:16:36.808Z,8.80
2023-10-30T15:18:41.767Z,8.30
2023-10-30T15:20:49.394Z,8.20
2023-10-30T15:22:54.250Z,8.80
2023-10-30T15:24:59.196Z,9.10
2023-10-30T15:27:09.462Z,8.90
2023-10-30T15:29:14.195Z,9.10
2023-10-30T15:31:19.059Z,9.30
2023-10-30T15:33:23.897Z,10.40
2023-10-30T15:35:28.825Z,10.50
2023-10-30T15:37:33.797Z,10.40
2023-10-30T15:39:38.692Z,9.80
2023-10-30T15:41:45.726Z,9.20
2023-10-30T15:43:54.563Z,10.10
2023-10-30T15:45:59.354Z,10.50
2023-10-30T15:48:04.625Z,10.30
2023-10-30T15:50:10.820Z,10.70
2023-10-30T15:58:46.367Z,8.90
2023-10-30T16:00:51.710Z,9.90
2023-10-30T16:02:56.902Z,9.50
2023-10-30T16:05:02.986Z,9.20
2023-10-30T16:07:08.635Z,9.00
2023-10-30T16:09:13.480Z,10.00
2023-10-30T16:15:39.089Z,10.30
2023-10-30T16:17:44.654Z,10.50
2023-10-30T16:20:22.302Z,10.10
2023-10-30T16:22:14.726Z,9.50
2023-10-30T16:24:19.598Z,9.80
2023-10-30T16:26:24.474Z,9.70
2023-10-30T16:28:29.326Z,9.90
2023-10-30T16:30:37.025Z,14.80
2023-10-30T16:32:41.975Z,16.30
2023-10-30T16:34:46.746Z,12.70
2023-10-30T16:36:51.583Z,12.20
2023-10-30T16:38:56.845Z,11.70
2023-10-30T16:41:01.760Z,11.60
2023-10-30T16:43:06.758Z,11.00
2023-10-30T16:45:12.513Z,10.40
2023-10-30T16:47:18.198Z,10.40
2023-10-30T16:49:23.344Z,10.10
2023-10-30T16:51:28.072Z,9.70
2023-10-30T16:53:32.859Z,9.80
2023-10-30T16:55:37.601Z,8.60
2023-10-30T16:57:42.356Z,8.90
2023-10-30T16:59:47.648Z,8.10
2023-10-30T17:01:52.713Z,7.90
2023-10-30T17:03:57.550Z,7.40
2023-10-30T17:06:02.431Z,7.60
2023-10-30T17:08:08.190Z,7.60
2023-10-30T17:10:13.107Z,7.80
2023-10-30T17:12:18.013Z,9.30
2023-10-30T17:14:22.817Z,11.30
2023-10-30T17:16:27.676Z,10.50
2023-10-30T17:18:32.439Z,10.10
2023-10-30T17:20:37.410Z,9.10
2023-10-30T17:22:42.356Z,10.20
2023-10-30T17:24:48.544Z,10.70
2023-10-30T17:26:53.826Z,8.70
2023-10-30T17:28:58.763Z,8.00
2023-10-30T17:31:03.673Z,8.20
2023-10-30T17:33:08.720Z,8.20
2023-10-30T17:35:14.249Z,8.20
2023-10-30T17:37:19.808Z,8.40
2023-10-30T17:39:24.737Z,9.20
2023-10-30T17:41:30.695Z,9.10
2023-10-30T17:43:38.189Z,9.10
2023-10-30T17:45:43.814Z,10.10
2023-10-30T17:47:49.399Z,9.00
2023-10-30T17:49:56.147Z,9.10
2023-10-30T17:52:02.307Z,8.10
2023-10-30T17:54:07.764Z,8.30
2023-10-30T17:56:14.410Z,7.80
2023-10-30T17:58:20.481Z,7.30
2023-10-30T18:00:25.908Z,7.60
2023-10-30T18:02:32.151Z,8.20
2023-10-30T18:04:38.277Z,8.60
2023-10-30T18:06:43.997Z,8.80
2023-10-30T18:08:51.275Z,8.20
2023-10-30T18:10:56.595Z,7.60
2023-10-30T18:13:02.105Z,7.80
2023-10-30T18:15:10.757Z,7.40
2023-10-30T18:17:17.446Z,7.00
2023-10-30T18:19:22.608Z,6.90
2023-10-30T18:21:28.148Z,6.50
2023-10-30T18:23:37.041Z,7.10
2023-10-30T18:25:43.648Z,7.10
2023-10-30T18:27:49.777Z,6.60
2023-10-30T18:29:56.056Z,8.80
2023-10-30T18:32:01.985Z,7.60
2023-10-30T18:34:08.750Z,8.90
2023-10-30T18:36:16.000Z,7.60
2023-10-30T18:38:23.153Z,6.60
2023-10-30T18:40:30.337Z,6.60
2023-10-30T18:42:38.256Z,6.40
2023-10-30T18:44:43.863Z,5.80
2023-10-30T18:46:49.621Z,5.40
2023-10-30T18:48:57.003Z,5.00
2023-10-30T18:51:05.711Z,4.20
2023-10-30T18:53:12.387Z,4.00
2023-10-30T18:55:18.502Z,3.40
2023-10-30T18:57:24.435Z,3.50
2023-10-30T18:59:32.812Z,3.50
2023-10-30T19:01:40.092Z,2.60
2023-10-30T19:03:48.048Z,2.90
2023-10-30T19:05:54.431Z,3.00
2023-10-30T19:07:59.302Z,3.20
2023-10-30T19:10:07.676Z,2.80
2023-10-30T19:12:15.697Z,2.50
2023-10-30T19:14:24.630Z,2.50
2023-10-30T19:16:30.462Z,2.60
2023-10-30T19:18:38.048Z,2.30
2023-10-30T19:20:44.665Z,2.10
2023-10-30T19:22:51.301Z,2.30
2023-10-30T19:24:58.094Z,2.40
2023-10-30T19:27:04.465Z,2.10
2023-10-30T19:29:10.985Z,2.20
2023-10-30T19:31:18.345Z,2.70
2023-10-30T19:33:24.944Z,2.40
2023-10-30T19:35:33.425Z,2.10
2023-10-30T19:37:39.938Z,2.20
2023-10-30T19:39:45.263Z,2.30
2023-10-30T19:41:51.641Z,2.00
2023-10-30T19:43:59.488Z,2.20
2023-10-30T19:46:06.856Z,2.40
2023-10-30T19:48:12.962Z,2.30
2023-10-30T19:50:20.573Z,2.40
2023-10-30T19:52:26.685Z,2.00
2023-10-30T19:54:33.218Z,2.10
2023-10-30T19:56:39.095Z,2.40
2023-10-30T19:58:49.186Z,2.30
2023-10-30T20:00:58.595Z,2.10
2023-10-30T20:03:09.782Z,2.30
2023-10-30T20:05:17.510Z,2.20
2023-10-30T20:07:24.597Z,2.40
2023-10-30T20:09:38.534Z,2.80
2023-10-30T20:11:53.283Z,2.30
2023-10-30T20:13:59.583Z,2.00
2023-10-30T20:16:07.208Z,2.80
2023-10-30T20:18:16.439Z,2.00
2023-10-30T20:20:24.330Z,2.20
2023-10-30T20:22:33.031Z,2.40
2023-10-30T20:24:43.058Z,2.10
2023-10-30T20:26:50.382Z,2.20
2023-10-30T20:29:00.377Z,2.50
2023-10-30T20:31:06.353Z,2.40
2023-10-30T20:33:12.970Z,2.30
2023-10-30T20:35:23.271Z,2.20
2023-10-30T20:37:28.718Z,2.40
2023-10-30T20:39:35.777Z,2.60
2023-10-30T20:41:41.214Z,2.60
2023-10-30T20:43:47.242Z,2.40
2023-10-30T20:45:52.640Z,2.30
2023-10-30T20:47:58.493Z,2.30
2023-10-30T20:50:04.855Z,2.40
2023-10-30T20:52:09.821Z,2.60
2023-10-30T20:54:15.785Z,2.40
2023-10-30T20:56:22.009Z,2.30
2023-10-30T20:58:27.406Z,2.40
2023-10-30T21:00:33.129Z,2.40
2023-10-30T21:02:38.451Z,2.70
2023-10-30T21:04:43.569Z,2.40
2023-10-30T21:06:48.540Z,2.50
2023-10-30T21:08:53.519Z,2.70
2023-10-30T21:10:58.422Z,2.60
2023-10-30T21:13:03.325Z,2.70
2023-10-30T21:15:09.994Z,2.60
2023-10-30T21:17:14.855Z,2.80
2023-10-30T21:19:20.481Z,2.80
2023-10-30T21:21:25.384Z,2.30
2023-10-30T21:23:30.166Z,2.40
2023-10-30T21:25:35.038Z,2.40
2023-10-30T21:27:39.957Z,2.30
2023-10-30T21:29:48.397Z,2.30
2023-10-30T21:31:53.776Z,2.20
2023-10-30T21:33:58.723Z,2.50
2023-10-30T21:36:03.885Z,2.50
2023-10-30T21:38:08.698Z,2.50
2023-10-30T21:40:14.896Z,2.70
2023-10-30T21:42:19.903Z,2.20
2023-10-30T21:44:24.754Z,2.40
2023-10-30T21:46:29.714Z,2.30
2023-10-30T21:48:34.687Z,2.60
2023-10-30T21:50:39.542Z,2.40
2023-10-30T21:52:44.960Z,2.40
2023-10-30T21:54:51.300Z,2.40
2023-10-30T21:56:56.673Z,2.50
2023-10-30T21:59:02.045Z,2.10
2023-10-30T22:01:07.647Z,2.40
2023-10-30T22:03:21.804Z,2.20
2023-10-30T22:05:26.871Z,2.40
2023-10-30T22:07:32.050Z,2.50
2023-10-30T22:09:37.085Z,2.30
2023-10-30T22:11:41.974Z,2.30
2023-10-30T22:13:47.187Z,2.50
2023-10-30T22:15:52.802Z,2.20
2023-10-30T22:17:57.745Z,1.90
2023-10-30T22:20:03.129Z,2.40
2023-10-30T22:22:08.083Z,2.10
2023-10-30T22:24:13.067Z,2.10
2023-10-30T22:26:21.454Z,2.10
2023-10-30T22:28:26.667Z,2.20
2023-10-30T22:30:31.744Z,2.10
2023-10-30T22:32:44.125Z,2.00
2023-10-30T22:34:49.913Z,2.00
2023-10-30T22:36:54.744Z,2.40
2023-10-30T22:38:59.568Z,2.40
2023-10-30T22:41:04.607Z,2.50
2023-10-30T22:43:09.364Z,2.10
2023-10-30T22:45:14.102Z,2.00
2023-10-30T22:47:18.903Z,2.40
2023-10-30T22:49:23.720Z,2.20
2023-10-30T22:51:28.600Z,2.30
2023-10-30T22:53:33.574Z,2.10
2023-10-30T22:55:41.379Z,2.00
2023-10-30T22:57:46.356Z,2.20
2023-10-30T22:59:51.608Z,2.20
2023-10-30T23:01:56.611Z,2.10
2023-10-30T23:04:01.441Z,2.30
2023-10-30T23:06:06.826Z,2.30
2023-10-30T23:08:11.853Z,2.50
2023-10-30T23:10:16.732Z,2.80
2023-10-30T23:12:21.432Z,2.60
2023-10-30T23:14:26.174Z,2.30
2023-10-30T23:16:31.040Z,2.40
2023-10-30T23:18:35.954Z,2.60
2023-10-30T23:20:40.837Z,2.30
2023-10-30T23:22:45.745Z,2.50
2023-10-30T23:24:50.859Z,2.20
2023-10-30T23:26:56.172Z,2.80
2023-10-30T23:29:01.194Z,2.20
2023-10-30T23:31:06.246Z,2.40
2023-10-30T23:33:11.207Z,2.10
2023-10-30T23:35:16.400Z,2.50
2023-10-30T23:37:21.135Z,2.60
2023-10-30T23:39:25.883Z,2.70
2023-10-30T23:41:33.427Z,2.10
2023-10-30T23:43:38.421Z,2.10
2023-10-30T23:45:43.290Z,2.10
2023-10-30T23:47:48.176Z,2.00
2023-10-30T23:49:53.034Z,2.20
2023-10-30T23:51:57.934Z,2.20
2023-10-30T23:54:02.739Z,2.50
2023-10-30T23:56:11.606Z,2.60
2023-10-30T23:58:16.407Z,2.20
